sensor_id;sensor_type;location;lat;lon;timestamp;P1;durP1;ratioP1;P2;durP2;ratioP2
20623;SDS011;10471;42.736;23.346;2023-02-01T00:01:07;11.03;;;7.57;;
20623;SDS011;10471;42.736;23.346;2023-02-01T00:03:33;11.17;;;8.03;;
20623;SDS011;10471;42.736;23.346;2023-02-01T00:05:58;12.47;;;8.13;;
20623;SDS011;10471;42.736;23.346;2023-02-01T00:08:25;11.60;;;8.10;;
20623;SDS011;10471;42.736;23.346;2023-02-01T00:11:01;10.70;;;8.43;;
20623;SDS011;10471;42.736;23.346;2023-02-01T00:13:30;13.97;;;9.23;;
20623;SDS011;10471;42.736;23.346;2023-02-01T00:16:10;12.77;;;9.20;;
20623;SDS011;10471;42.736;23.346;2023-02-01T00:18:47;14.77;;;9.57;;
20623;SDS011;10471;42.736;23.346;2023-02-01T00:21:16;13.50;;;9.43;;
20623;SDS011;10471;42.736;23.346;2023-02-01T00:23:43;11.07;;;8.47;;
20623;SDS011;10471;42.736;23.346;2023-02-01T00:26:18;12.17;;;9.53;;
20623;SDS011;10471;42.736;23.346;2023-02-01T00:28:47;13.00;;;9.43;;
20623;SDS011;10471;42.736;23.346;2023-02-01T00:31:13;16.37;;;10.20;;
20623;SDS011;10471;42.736;23.346;2023-02-01T00:33:39;12.77;;;9.53;;
20623;SDS011;10471;42.736;23.346;2023-02-01T00:36:06;13.50;;;9.00;;
20623;SDS011;10471;42.736;23.346;2023-02-01T00:38:34;11.67;;;8.53;;
20623;SDS011;10471;42.736;23.346;2023-02-01T00:41:06;13.10;;;9.83;;
20623;SDS011;10471;42.736;23.346;2023-02-01T00:43:35;14.40;;;9.33;;
20623;SDS011;10471;42.736;23.346;2023-02-01T00:46:00;15.80;;;8.90;;
20623;SDS011;10471;42.736;23.346;2023-02-01T00:48:26;11.93;;;9.03;;
20623;SDS011;10471;42.736;23.346;2023-02-01T00:50:52;11.37;;;9.63;;
20623;SDS011;10471;42.736;23.346;2023-02-01T00:53:17;11.20;;;9.03;;
20623;SDS011;10471;42.736;23.346;2023-02-01T00:55:46;12.27;;;8.30;;
20623;SDS011;10471;42.736;23.346;2023-02-01T00:58:12;12.63;;;8.43;;
20623;SDS011;10471;42.736;23.346;2023-02-01T01:00:38;11.80;;;7.80;;
20623;SDS011;10471;42.736;23.346;2023-02-01T01:03:04;10.53;;;8.63;;
20623;SDS011;10471;42.736;23.346;2023-02-01T01:05:43;10.83;;;8.17;;
20623;SDS011;10471;42.736;23.346;2023-02-01T01:08:12;12.40;;;7.67;;
20623;SDS011;10471;42.736;23.346;2023-02-01T01:10:38;11.17;;;7.10;;
20623;SDS011;10471;42.736;23.346;2023-02-01T01:13:05;12.17;;;7.50;;
20623;SDS011;10471;42.736;23.346;2023-02-01T01:15:35;12.17;;;7.10;;
20623;SDS011;10471;42.736;23.346;2023-02-01T01:18:01;8.97;;;6.37;;
20623;SDS011;10471;42.736;23.346;2023-02-01T01:20:26;10.97;;;6.77;;
20623;SDS011;10471;42.736;23.346;2023-02-01T01:22:51;10.40;;;6.77;;
20623;SDS011;10471;42.736;23.346;2023-02-01T01:25:17;11.40;;;6.50;;
20623;SDS011;10471;42.736;23.346;2023-02-01T01:27:42;15.97;;;8.87;;
20623;SDS011;10471;42.736;23.346;2023-02-01T01:30:07;13.30;;;7.27;;
20623;SDS011;10471;42.736;23.346;2023-02-01T01:32:33;20.97;;;10.33;;
20623;SDS011;10471;42.736;23.346;2023-02-01T01:34:59;19.13;;;9.83;;
20623;SDS011;10471;42.736;23.346;2023-02-01T01:37:24;22.53;;;11.80;;
20623;SDS011;10471;42.736;23.346;2023-02-01T01:39:49;22.10;;;10.20;;
20623;SDS011;10471;42.736;23.346;2023-02-01T01:42:15;19.60;;;9.47;;
20623;SDS011;10471;42.736;23.346;2023-02-01T01:47:23;10.97;;;6.70;;
20623;SDS011;10471;42.736;23.346;2023-02-01T01:49:54;7.40;;;5.50;;
20623;SDS011;10471;42.736;23.346;2023-02-01T01:52:20;12.93;;;7.23;;
20623;SDS011;10471;42.736;23.346;2023-02-01T01:54:47;14.23;;;7.17;;
20623;SDS011;10471;42.736;23.346;2023-02-01T01:57:20;6.30;;;5.53;;
20623;SDS011;10471;42.736;23.346;2023-02-01T02:00:01;8.30;;;5.43;;
20623;SDS011;10471;42.736;23.346;2023-02-01T02:02:30;13.50;;;6.93;;
20623;SDS011;10471;42.736;23.346;2023-02-01T02:04:55;7.90;;;5.60;;
20623;SDS011;10471;42.736;23.346;2023-02-01T02:07:23;11.67;;;6.33;;
20623;SDS011;10471;42.736;23.346;2023-02-01T02:09:53;9.60;;;4.80;;
20623;SDS011;10471;42.736;23.346;2023-02-01T02:12:19;9.93;;;6.03;;
20623;SDS011;10471;42.736;23.346;2023-02-01T02:14:45;8.53;;;4.90;;
20623;SDS011;10471;42.736;23.346;2023-02-01T02:25:54;9.23;;;5.73;;
20623;SDS011;10471;42.736;23.346;2023-02-01T02:31:22;8.00;;;6.10;;
20623;SDS011;10471;42.736;23.346;2023-02-01T02:49:05;7.97;;;5.50;;
20623;SDS011;10471;42.736;23.346;2023-02-01T02:51:40;9.50;;;6.00;;
20623;SDS011;10471;42.736;23.346;2023-02-01T02:54:36;6.30;;;5.67;;
20623;SDS011;10471;42.736;23.346;2023-02-01T02:57:13;9.23;;;5.77;;
20623;SDS011;10471;42.736;23.346;2023-02-01T03:00:14;11.80;;;5.57;;
20623;SDS011;10471;42.736;23.346;2023-02-01T03:03:02;9.77;;;5.83;;
20623;SDS011;10471;42.736;23.346;2023-02-01T03:05:47;12.17;;;5.23;;
20623;SDS011;10471;42.736;23.346;2023-02-01T03:08:17;8.57;;;5.63;;
20623;SDS011;10471;42.736;23.346;2023-02-01T03:19:08;9.23;;;4.53;;
20623;SDS011;10471;42.736;23.346;2023-02-01T03:24:17;6.17;;;4.70;;
20623;SDS011;10471;42.736;23.346;2023-02-01T03:26:51;6.40;;;4.80;;
20623;SDS011;10471;42.736;23.346;2023-02-01T03:29:25;12.00;;;4.50;;
20623;SDS011;10471;42.736;23.346;2023-02-01T03:31:56;9.77;;;5.10;;
20623;SDS011;10471;42.736;23.346;2023-02-01T03:34:21;10.03;;;4.70;;
20623;SDS011;10471;42.736;23.346;2023-02-01T03:37:03;13.07;;;5.87;;
20623;SDS011;10471;42.736;23.346;2023-02-01T03:39:53;10.07;;;5.00;;
20623;SDS011;10471;42.736;23.346;2023-02-01T03:42:27;10.90;;;5.60;;
20623;SDS011;10471;42.736;23.346;2023-02-01T03:45:07;8.53;;;5.90;;
20623;SDS011;10471;42.736;23.346;2023-02-01T03:47:40;8.00;;;5.40;;
20623;SDS011;10471;42.736;23.346;2023-02-01T03:50:10;6.40;;;4.30;;
20623;SDS011;10471;42.736;23.346;2023-02-01T03:52:44;8.40;;;5.20;;
20623;SDS011;10471;42.736;23.346;2023-02-01T03:55:14;8.20;;;5.00;;
20623;SDS011;10471;42.736;23.346;2023-02-01T03:57:43;6.57;;;4.70;;
20623;SDS011;10471;42.736;23.346;2023-02-01T04:00:17;6.30;;;5.00;;
20623;SDS011;10471;42.736;23.346;2023-02-01T04:02:46;6.10;;;4.37;;
20623;SDS011;10471;42.736;23.346;2023-02-01T04:05:12;8.30;;;5.60;;
20623;SDS011;10471;42.736;23.346;2023-02-01T04:07:37;9.23;;;5.70;;
20623;SDS011;10471;42.736;23.346;2023-02-01T04:10:03;6.47;;;4.07;;
20623;SDS011;10471;42.736;23.346;2023-02-01T04:12:29;6.10;;;3.60;;
20623;SDS011;10471;42.736;23.346;2023-02-01T04:14:54;4.93;;;3.13;;
20623;SDS011;10471;42.736;23.346;2023-02-01T04:17:20;7.40;;;3.70;;
20623;SDS011;10471;42.736;23.346;2023-02-01T04:19:45;6.47;;;3.80;;
20623;SDS011;10471;42.736;23.346;2023-02-01T04:22:10;6.73;;;4.00;;
20623;SDS011;10471;42.736;23.346;2023-02-01T04:24:37;7.17;;;4.10;;
20623;SDS011;10471;42.736;23.346;2023-02-01T04:27:02;6.27;;;4.77;;
20623;SDS011;10471;42.736;23.346;2023-02-01T04:29:28;5.03;;;3.57;;
20623;SDS011;10471;42.736;23.346;2023-02-01T04:31:53;11.37;;;4.53;;
20623;SDS011;10471;42.736;23.346;2023-02-01T04:34:18;8.70;;;4.50;;
20623;SDS011;10471;42.736;23.346;2023-02-01T04:36:44;7.17;;;4.80;;
20623;SDS011;10471;42.736;23.346;2023-02-01T04:39:09;4.60;;;4.07;;
20623;SDS011;10471;42.736;23.346;2023-02-01T04:41:35;7.23;;;4.73;;
20623;SDS011;10471;42.736;23.346;2023-02-01T04:44:00;9.60;;;5.00;;
20623;SDS011;10471;42.736;23.346;2023-02-01T04:46:26;7.43;;;4.70;;
20623;SDS011;10471;42.736;23.346;2023-02-01T04:48:51;8.27;;;4.67;;
20623;SDS011;10471;42.736;23.346;2023-02-01T04:51:17;6.20;;;4.67;;
20623;SDS011;10471;42.736;23.346;2023-02-01T04:53:43;7.13;;;4.73;;
20623;SDS011;10471;42.736;23.346;2023-02-01T04:56:09;7.60;;;5.17;;
20623;SDS011;10471;42.736;23.346;2023-02-01T04:58:34;9.13;;;5.40;;
20623;SDS011;10471;42.736;23.346;2023-02-01T05:01:03;7.47;;;4.90;;
20623;SDS011;10471;42.736;23.346;2023-02-01T05:03:30;7.60;;;5.90;;
20623;SDS011;10471;42.736;23.346;2023-02-01T05:05:59;9.33;;;5.90;;
20623;SDS011;10471;42.736;23.346;2023-02-01T05:08:25;8.27;;;5.87;;
20623;SDS011;10471;42.736;23.346;2023-02-01T05:10:51;13.27;;;7.20;;
20623;SDS011;10471;42.736;23.346;2023-02-01T05:13:17;10.10;;;6.23;;
20623;SDS011;10471;42.736;23.346;2023-02-01T05:16:01;14.73;;;7.60;;
20623;SDS011;10471;42.736;23.346;2023-02-01T05:18:27;9.90;;;5.53;;
20623;SDS011;10471;42.736;23.346;2023-02-01T05:20:52;10.07;;;6.40;;
20623;SDS011;10471;42.736;23.346;2023-02-01T05:23:18;11.83;;;6.50;;
20623;SDS011;10471;42.736;23.346;2023-02-01T05:25:43;12.23;;;7.40;;
20623;SDS011;10471;42.736;23.346;2023-02-01T05:28:09;7.33;;;5.03;;
20623;SDS011;10471;42.736;23.346;2023-02-01T05:30:34;10.67;;;6.27;;
20623;SDS011;10471;42.736;23.346;2023-02-01T05:33:00;10.17;;;5.90;;
20623;SDS011;10471;42.736;23.346;2023-02-01T05:35:26;8.23;;;6.00;;
20623;SDS011;10471;42.736;23.346;2023-02-01T05:37:52;10.83;;;7.03;;
20623;SDS011;10471;42.736;23.346;2023-02-01T05:40:17;11.37;;;6.47;;
20623;SDS011;10471;42.736;23.346;2023-02-01T05:42:43;9.63;;;6.67;;
20623;SDS011;10471;42.736;23.346;2023-02-01T05:45:08;12.90;;;6.47;;
20623;SDS011;10471;42.736;23.346;2023-02-01T05:47:34;13.80;;;6.60;;
20623;SDS011;10471;42.736;23.346;2023-02-01T05:49:59;11.33;;;6.87;;
20623;SDS011;10471;42.736;23.346;2023-02-01T05:52:25;9.60;;;6.73;;
20623;SDS011;10471;42.736;23.346;2023-02-01T05:54:50;13.07;;;7.47;;
20623;SDS011;10471;42.736;23.346;2023-02-01T05:57:15;12.43;;;8.13;;
20623;SDS011;10471;42.736;23.346;2023-02-01T05:59:41;11.27;;;7.20;;
20623;SDS011;10471;42.736;23.346;2023-02-01T06:02:08;10.73;;;5.93;;
20623;SDS011;10471;42.736;23.346;2023-02-01T06:04:34;9.07;;;6.20;;
20623;SDS011;10471;42.736;23.346;2023-02-01T06:07:00;9.83;;;5.30;;
20623;SDS011;10471;42.736;23.346;2023-02-01T06:09:25;10.20;;;5.60;;
20623;SDS011;10471;42.736;23.346;2023-02-01T06:11:51;10.10;;;6.03;;
20623;SDS011;10471;42.736;23.346;2023-02-01T06:14:16;11.27;;;5.93;;
20623;SDS011;10471;42.736;23.346;2023-02-01T06:16:42;9.07;;;5.93;;
20623;SDS011;10471;42.736;23.346;2023-02-01T06:19:07;11.70;;;6.20;;
20623;SDS011;10471;42.736;23.346;2023-02-01T06:21:34;8.13;;;5.90;;
20623;SDS011;10471;42.736;23.346;2023-02-01T06:24:01;14.43;;;7.30;;
20623;SDS011;10471;42.736;23.346;2023-02-01T06:26:26;9.40;;;6.43;;
20623;SDS011;10471;42.736;23.346;2023-02-01T06:28:53;13.07;;;8.13;;
20623;SDS011;10471;42.736;23.346;2023-02-01T06:31:20;11.07;;;7.30;;
20623;SDS011;10471;42.736;23.346;2023-02-01T06:33:45;12.13;;;8.27;;
20623;SDS011;10471;42.736;23.346;2023-02-01T06:36:12;18.60;;;9.87;;
20623;SDS011;10471;42.736;23.346;2023-02-01T06:38:38;22.20;;;10.53;;
20623;SDS011;10471;42.736;23.346;2023-02-01T06:41:04;25.87;;;13.50;;
20623;SDS011;10471;42.736;23.346;2023-02-01T06:43:30;34.30;;;15.37;;
20623;SDS011;10471;42.736;23.346;2023-02-01T06:46:01;24.70;;;12.33;;
20623;SDS011;10471;42.736;23.346;2023-02-01T06:48:28;20.93;;;11.10;;
20623;SDS011;10471;42.736;23.346;2023-02-01T06:50:53;17.73;;;9.50;;
20623;SDS011;10471;42.736;23.346;2023-02-01T06:53:18;19.73;;;10.50;;
20623;SDS011;10471;42.736;23.346;2023-02-01T06:55:54;23.70;;;10.73;;
20623;SDS011;10471;42.736;23.346;2023-02-01T06:58:21;18.93;;;9.97;;
20623;SDS011;10471;42.736;23.346;2023-02-01T07:00:47;19.30;;;9.50;;
20623;SDS011;10471;42.736;23.346;2023-02-01T07:03:12;17.53;;;10.40;;
20623;SDS011;10471;42.736;23.346;2023-02-01T07:05:37;12.40;;;8.37;;
20623;SDS011;10471;42.736;23.346;2023-02-01T07:08:03;17.70;;;10.97;;
20623;SDS011;10471;42.736;23.346;2023-02-01T07:10:28;13.83;;;9.43;;
20623;SDS011;10471;42.736;23.346;2023-02-01T07:12:56;15.80;;;8.13;;
20623;SDS011;10471;42.736;23.346;2023-02-01T07:15:22;17.07;;;9.67;;
20623;SDS011;10471;42.736;23.346;2023-02-01T07:17:47;14.80;;;10.13;;
20623;SDS011;10471;42.736;23.346;2023-02-01T07:20:14;12.03;;;6.93;;
20623;SDS011;10471;42.736;23.346;2023-02-01T07:22:39;14.30;;;8.50;;
20623;SDS011;10471;42.736;23.346;2023-02-01T07:25:05;10.37;;;5.57;;
20623;SDS011;10471;42.736;23.346;2023-02-01T07:27:33;10.53;;;5.13;;
20623;SDS011;10471;42.736;23.346;2023-02-01T07:29:59;12.40;;;6.20;;
20623;SDS011;10471;42.736;23.346;2023-02-01T07:32:27;10.60;;;5.73;;
20623;SDS011;10471;42.736;23.346;2023-02-01T07:34:52;8.20;;;4.37;;
20623;SDS011;10471;42.736;23.346;2023-02-01T07:37:18;16.53;;;6.17;;
20623;SDS011;10471;42.736;23.346;2023-02-01T07:39:43;14.20;;;7.40;;
20623;SDS011;10471;42.736;23.346;2023-02-01T07:42:08;15.77;;;8.30;;
20623;SDS011;10471;42.736;23.346;2023-02-01T07:44:34;8.40;;;5.30;;
20623;SDS011;10471;42.736;23.346;2023-02-01T07:46:59;13.13;;;7.40;;
20623;SDS011;10471;42.736;23.346;2023-02-01T07:49:25;10.70;;;5.67;;
20623;SDS011;10471;42.736;23.346;2023-02-01T07:51:50;15.23;;;9.90;;
20623;SDS011;10471;42.736;23.346;2023-02-01T07:54:16;14.07;;;8.17;;
20623;SDS011;10471;42.736;23.346;2023-02-01T07:56:41;9.80;;;6.07;;
20623;SDS011;10471;42.736;23.346;2023-02-01T07:59:07;15.67;;;5.80;;
20623;SDS011;10471;42.736;23.346;2023-02-01T08:01:32;12.43;;;5.97;;
20623;SDS011;10471;42.736;23.346;2023-02-01T08:03:59;8.77;;;5.27;;
20623;SDS011;10471;42.736;23.346;2023-02-01T08:06:27;7.40;;;4.83;;
20623;SDS011;10471;42.736;23.346;2023-02-01T08:08:54;9.13;;;5.30;;
20623;SDS011;10471;42.736;23.346;2023-02-01T08:11:20;9.43;;;4.53;;
20623;SDS011;10471;42.736;23.346;2023-02-01T08:13:46;11.70;;;6.00;;
20623;SDS011;10471;42.736;23.346;2023-02-01T08:16:13;9.37;;;5.77;;
20623;SDS011;10471;42.736;23.346;2023-02-01T08:18:39;15.87;;;8.30;;
20623;SDS011;10471;42.736;23.346;2023-02-01T08:21:13;22.23;;;9.93;;
20623;SDS011;10471;42.736;23.346;2023-02-01T08:23:40;18.80;;;8.50;;
20623;SDS011;10471;42.736;23.346;2023-02-01T08:28:40;9.47;;;4.80;;
20623;SDS011;10471;42.736;23.346;2023-02-01T08:31:09;8.23;;;4.23;;
20623;SDS011;10471;42.736;23.346;2023-02-01T08:33:36;9.27;;;4.67;;
20623;SDS011;10471;42.736;23.346;2023-02-01T08:36:03;15.03;;;5.67;;
20623;SDS011;10471;42.736;23.346;2023-02-01T08:38:30;10.13;;;5.60;;
20623;SDS011;10471;42.736;23.346;2023-02-01T08:40:55;11.63;;;6.47;;
20623;SDS011;10471;42.736;23.346;2023-02-01T08:43:21;11.90;;;6.13;;
20623;SDS011;10471;42.736;23.346;2023-02-01T08:45:46;9.63;;;6.20;;
20623;SDS011;10471;42.736;23.346;2023-02-01T08:48:12;9.77;;;5.90;;
20623;SDS011;10471;42.736;23.346;2023-02-01T08:50:37;17.67;;;6.33;;
20623;SDS011;10471;42.736;23.346;2023-02-01T08:53:03;13.10;;;5.80;;
20623;SDS011;10471;42.736;23.346;2023-02-01T08:55:28;5.37;;;3.53;;
20623;SDS011;10471;42.736;23.346;2023-02-01T08:57:54;8.17;;;4.10;;
20623;SDS011;10471;42.736;23.346;2023-02-01T09:00:19;11.00;;;4.60;;
20623;SDS011;10471;42.736;23.346;2023-02-01T09:02:45;8.27;;;4.23;;
20623;SDS011;10471;42.736;23.346;2023-02-01T09:05:10;8.20;;;2.90;;
20623;SDS011;10471;42.736;23.346;2023-02-01T09:07:36;8.17;;;4.53;;
20623;SDS011;10471;42.736;23.346;2023-02-01T09:10:04;6.77;;;3.50;;
20623;SDS011;10471;42.736;23.346;2023-02-01T09:12:30;11.10;;;4.03;;
20623;SDS011;10471;42.736;23.346;2023-02-01T09:14:58;8.97;;;4.20;;
20623;SDS011;10471;42.736;23.346;2023-02-01T09:17:25;10.87;;;6.07;;
20623;SDS011;10471;42.736;23.346;2023-02-01T09:19:51;13.87;;;6.70;;
20623;SDS011;10471;42.736;23.346;2023-02-01T09:22:16;5.57;;;3.53;;
20623;SDS011;10471;42.736;23.346;2023-02-01T09:24:42;8.50;;;4.37;;
20623;SDS011;10471;42.736;23.346;2023-02-01T09:27:07;6.03;;;3.40;;
20623;SDS011;10471;42.736;23.346;2023-02-01T09:29:33;5.87;;;3.50;;
20623;SDS011;10471;42.736;23.346;2023-02-01T09:31:58;10.30;;;4.37;;
20623;SDS011;10471;42.736;23.346;2023-02-01T09:34:23;11.17;;;5.80;;
20623;SDS011;10471;42.736;23.346;2023-02-01T09:36:49;16.20;;;5.83;;
20623;SDS011;10471;42.736;23.346;2023-02-01T09:39:14;19.00;;;7.77;;
20623;SDS011;10471;42.736;23.346;2023-02-01T09:44:36;19.60;;;8.30;;
20623;SDS011;10471;42.736;23.346;2023-02-01T09:47:15;41.43;;;17.80;;
20623;SDS011;10471;42.736;23.346;2023-02-01T09:52:51;41.37;;;16.90;;
20623;SDS011;10471;42.736;23.346;2023-02-01T10:00:50;9.63;;;5.20;;
20623;SDS011;10471;42.736;23.346;2023-02-01T10:03:18;8.17;;;3.53;;
20623;SDS011;10471;42.736;23.346;2023-02-01T10:06:06;45.37;;;20.80;;
20623;SDS011;10471;42.736;23.346;2023-02-01T10:17:10;7.60;;;3.40;;
20623;SDS011;10471;42.736;23.346;2023-02-01T10:25:36;13.57;;;5.70;;
20623;SDS011;10471;42.736;23.346;2023-02-01T10:27:56;9.33;;;5.27;;
20623;SDS011;10471;42.736;23.346;2023-02-01T10:30:28;6.07;;;3.73;;
20623;SDS011;10471;42.736;23.346;2023-02-01T10:33:07;9.33;;;4.87;;
20623;SDS011;10471;42.736;23.346;2023-02-01T10:35:38;9.20;;;4.67;;
20623;SDS011;10471;42.736;23.346;2023-02-01T10:38:05;7.67;;;4.20;;
20623;SDS011;10471;42.736;23.346;2023-02-01T10:40:39;9.50;;;4.23;;
20623;SDS011;10471;42.736;23.346;2023-02-01T10:43:04;7.43;;;3.80;;
20623;SDS011;10471;42.736;23.346;2023-02-01T10:45:30;10.30;;;5.30;;
20623;SDS011;10471;42.736;23.346;2023-02-01T10:47:59;6.77;;;3.30;;
20623;SDS011;10471;42.736;23.346;2023-02-01T10:53:12;13.20;;;5.20;;
20623;SDS011;10471;42.736;23.346;2023-02-01T10:55:46;11.90;;;4.53;;
20623;SDS011;10471;42.736;23.346;2023-02-01T10:58:32;13.57;;;4.30;;
20623;SDS011;10471;42.736;23.346;2023-02-01T11:03:34;3.03;;;2.40;;
20623;SDS011;10471;42.736;23.346;2023-02-01T11:06:09;5.20;;;2.77;;
20623;SDS011;10471;42.736;23.346;2023-02-01T11:08:53;4.90;;;1.80;;
20623;SDS011;10471;42.736;23.346;2023-02-01T11:11:22;4.53;;;2.13;;
20623;SDS011;10471;42.736;23.346;2023-02-01T11:13:52;5.67;;;3.33;;
20623;SDS011;10471;42.736;23.346;2023-02-01T11:16:21;6.30;;;2.37;;
20623;SDS011;10471;42.736;23.346;2023-02-01T11:18:54;7.87;;;3.80;;
20623;SDS011;10471;42.736;23.346;2023-02-01T11:21:20;9.77;;;3.83;;
20623;SDS011;10471;42.736;23.346;2023-02-01T11:23:46;13.23;;;5.20;;
20623;SDS011;10471;42.736;23.346;2023-02-01T11:26:19;7.13;;;3.30;;
20623;SDS011;10471;42.736;23.346;2023-02-01T11:31:47;14.20;;;5.20;;
20623;SDS011;10471;42.736;23.346;2023-02-01T11:34:14;14.33;;;5.00;;
20623;SDS011;10471;42.736;23.346;2023-02-01T11:36:42;12.87;;;5.07;;
20623;SDS011;10471;42.736;23.346;2023-02-01T11:44:20;12.07;;;4.77;;
20623;SDS011;10471;42.736;23.346;2023-02-01T11:46:47;15.57;;;6.50;;
20623;SDS011;10471;42.736;23.346;2023-02-01T11:49:34;8.93;;;2.63;;
20623;SDS011;10471;42.736;23.346;2023-02-01T11:52:05;6.03;;;3.23;;
20623;SDS011;10471;42.736;23.346;2023-02-01T11:57:02;4.87;;;2.03;;
20623;SDS011;10471;42.736;23.346;2023-02-01T12:05:24;9.70;;;4.90;;
20623;SDS011;10471;42.736;23.346;2023-02-01T12:20:03;6.93;;;3.73;;
20623;SDS011;10471;42.736;23.346;2023-02-01T12:36:18;7.17;;;3.83;;
20623;SDS011;10471;42.736;23.346;2023-02-01T12:46:14;7.53;;;4.33;;
20623;SDS011;10471;42.736;23.346;2023-02-01T12:49:02;5.03;;;2.57;;
20623;SDS011;10471;42.736;23.346;2023-02-01T12:51:36;6.20;;;3.47;;
20623;SDS011;10471;42.736;23.346;2023-02-01T12:54:09;5.83;;;3.30;;
20623;SDS011;10471;42.736;23.346;2023-02-01T12:56:47;9.23;;;3.87;;
20623;SDS011;10471;42.736;23.346;2023-02-01T13:02:04;7.27;;;3.43;;
20623;SDS011;10471;42.736;23.346;2023-02-01T13:04:58;6.50;;;3.10;;
20623;SDS011;10471;42.736;23.346;2023-02-01T13:07:36;6.63;;;3.60;;
20623;SDS011;10471;42.736;23.346;2023-02-01T13:10:15;7.67;;;3.53;;
20623;SDS011;10471;42.736;23.346;2023-02-01T13:12:50;5.23;;;2.17;;
20623;SDS011;10471;42.736;23.346;2023-02-01T13:15:29;5.63;;;3.10;;
20623;SDS011;10471;42.736;23.346;2023-02-01T13:17:59;8.70;;;4.13;;
20623;SDS011;10471;42.736;23.346;2023-02-01T13:20:29;2.53;;;1.83;;
20623;SDS011;10471;42.736;23.346;2023-02-01T13:23:03;4.93;;;2.93;;
20623;SDS011;10471;42.736;23.346;2023-02-01T13:25:50;5.00;;;2.40;;
20623;SDS011;10471;42.736;23.346;2023-02-01T13:28:40;6.93;;;3.00;;
20623;SDS011;10471;42.736;23.346;2023-02-01T13:31:45;6.70;;;3.37;;
20623;SDS011;10471;42.736;23.346;2023-02-01T13:37:32;3.90;;;2.67;;
20623;SDS011;10471;42.736;23.346;2023-02-01T13:46:02;5.27;;;2.67;;
20623;SDS011;10471;42.736;23.346;2023-02-01T13:48:45;5.20;;;2.70;;
20623;SDS011;10471;42.736;23.346;2023-02-01T13:51:41;5.67;;;2.73;;
20623;SDS011;10471;42.736;23.346;2023-02-01T13:54:29;6.23;;;2.47;;
20623;SDS011;10471;42.736;23.346;2023-02-01T13:56:56;4.47;;;2.60;;
20623;SDS011;10471;42.736;23.346;2023-02-01T14:05:11;11.27;;;4.73;;
20623;SDS011;10471;42.736;23.346;2023-02-01T14:13:29;13.07;;;5.70;;
20623;SDS011;10471;42.736;23.346;2023-02-01T14:23:44;14.87;;;6.57;;
20623;SDS011;10471;42.736;23.346;2023-02-01T14:26:16;13.07;;;5.87;;
20623;SDS011;10471;42.736;23.346;2023-02-01T14:28:55;6.07;;;3.60;;
20623;SDS011;10471;42.736;23.346;2023-02-01T14:31:31;5.87;;;3.53;;
20623;SDS011;10471;42.736;23.346;2023-02-01T14:34:02;10.83;;;4.30;;
20623;SDS011;10471;42.736;23.346;2023-02-01T14:36:45;9.13;;;4.43;;
20623;SDS011;10471;42.736;23.346;2023-02-01T14:39:19;8.30;;;4.23;;
20623;SDS011;10471;42.736;23.346;2023-02-01T14:42:14;12.00;;;5.47;;
20623;SDS011;10471;42.736;23.346;2023-02-01T14:44:47;9.47;;;4.47;;
20623;SDS011;10471;42.736;23.346;2023-02-01T14:52:18;7.60;;;4.07;;
20623;SDS011;10471;42.736;23.346;2023-02-01T14:54:48;11.27;;;5.43;;
20623;SDS011;10471;42.736;23.346;2023-02-01T14:57:18;8.90;;;4.70;;
20623;SDS011;10471;42.736;23.346;2023-02-01T14:59:46;9.27;;;4.73;;
20623;SDS011;10471;42.736;23.346;2023-02-01T15:02:19;10.07;;;4.93;;
20623;SDS011;10471;42.736;23.346;2023-02-01T15:04:53;9.80;;;4.70;;
20623;SDS011;10471;42.736;23.346;2023-02-01T15:07:23;13.67;;;5.77;;
20623;SDS011;10471;42.736;23.346;2023-02-01T15:09:50;10.23;;;4.57;;
20623;SDS011;10471;42.736;23.346;2023-02-01T15:12:18;13.00;;;5.10;;
20623;SDS011;10471;42.736;23.346;2023-02-01T15:17:38;19.33;;;11.73;;
20623;SDS011;10471;42.736;23.346;2023-02-01T15:20:18;7.73;;;3.50;;
20623;SDS011;10471;42.736;23.346;2023-02-01T15:22:52;9.53;;;5.23;;
20623;SDS011;10471;42.736;23.346;2023-02-01T15:25:30;8.40;;;4.00;;
20623;SDS011;10471;42.736;23.346;2023-02-01T15:27:57;10.67;;;4.77;;
20623;SDS011;10471;42.736;23.346;2023-02-01T15:30:27;12.43;;;5.70;;
20623;SDS011;10471;42.736;23.346;2023-02-01T15:35:43;18.80;;;7.80;;
20623;SDS011;10471;42.736;23.346;2023-02-01T15:43:24;15.00;;;8.10;;
20623;SDS011;10471;42.736;23.346;2023-02-01T15:45:51;9.03;;;5.63;;
20623;SDS011;10471;42.736;23.346;2023-02-01T15:48:22;7.90;;;5.10;;
20623;SDS011;10471;42.736;23.346;2023-02-01T15:50:49;14.73;;;7.17;;
20623;SDS011;10471;42.736;23.346;2023-02-01T15:53:18;15.87;;;8.13;;
20623;SDS011;10471;42.736;23.346;2023-02-01T15:55:46;13.03;;;6.77;;
20623;SDS011;10471;42.736;23.346;2023-02-01T15:58:20;14.93;;;6.80;;
20623;SDS011;10471;42.736;23.346;2023-02-01T16:00:48;10.50;;;5.47;;
20623;SDS011;10471;42.736;23.346;2023-02-01T16:05:58;10.40;;;4.83;;
20623;SDS011;10471;42.736;23.346;2023-02-01T16:08:27;11.97;;;5.73;;
20623;SDS011;10471;42.736;23.346;2023-02-01T16:11:28;11.47;;;7.23;;
20623;SDS011;10471;42.736;23.346;2023-02-01T16:13:48;14.93;;;7.03;;
20623;SDS011;10471;42.736;23.346;2023-02-01T16:16:14;11.53;;;6.10;;
20623;SDS011;10471;42.736;23.346;2023-02-01T16:18:42;11.37;;;5.97;;
20623;SDS011;10471;42.736;23.346;2023-02-01T16:21:07;36.60;;;19.73;;
20623;SDS011;10471;42.736;23.346;2023-02-01T16:23:34;21.23;;;12.87;;
20623;SDS011;10471;42.736;23.346;2023-02-01T16:26:00;24.50;;;11.47;;
20623;SDS011;10471;42.736;23.346;2023-02-01T16:28:26;15.40;;;8.07;;
20623;SDS011;10471;42.736;23.346;2023-02-01T16:30:51;8.97;;;5.27;;
20623;SDS011;10471;42.736;23.346;2023-02-01T16:33:18;7.90;;;4.17;;
20623;SDS011;10471;42.736;23.346;2023-02-01T16:35:46;13.80;;;5.87;;
20623;SDS011;10471;42.736;23.346;2023-02-01T16:38:14;15.17;;;7.00;;
20623;SDS011;10471;42.736;23.346;2023-02-01T16:40:43;11.07;;;6.93;;
20623;SDS011;10471;42.736;23.346;2023-02-01T16:45:40;14.97;;;8.37;;
20623;SDS011;10471;42.736;23.346;2023-02-01T16:48:10;16.23;;;8.23;;
20623;SDS011;10471;42.736;23.346;2023-02-01T16:50:41;14.57;;;9.20;;
20623;SDS011;10471;42.736;23.346;2023-02-01T16:53:07;18.13;;;9.40;;
20623;SDS011;10471;42.736;23.346;2023-02-01T16:55:36;21.47;;;11.43;;
20623;SDS011;10471;42.736;23.346;2023-02-01T16:58:02;26.03;;;13.37;;
20623;SDS011;10471;42.736;23.346;2023-02-01T17:00:27;21.00;;;11.63;;
20623;SDS011;10471;42.736;23.346;2023-02-01T17:02:56;16.63;;;9.60;;
20623;SDS011;10471;42.736;23.346;2023-02-01T17:05:21;34.97;;;17.43;;
20623;SDS011;10471;42.736;23.346;2023-02-01T17:07:46;27.87;;;16.97;;
20623;SDS011;10471;42.736;23.346;2023-02-01T17:10:18;30.77;;;20.03;;
20623;SDS011;10471;42.736;23.346;2023-02-01T17:12:47;18.87;;;13.13;;
20623;SDS011;10471;42.736;23.346;2023-02-01T17:15:13;11.13;;;7.27;;
20623;SDS011;10471;42.736;23.346;2023-02-01T17:17:39;61.57;;;22.57;;
20623;SDS011;10471;42.736;23.346;2023-02-01T17:20:07;22.93;;;10.67;;
20623;SDS011;10471;42.736;23.346;2023-02-01T17:22:40;36.00;;;18.63;;
20623;SDS011;10471;42.736;23.346;2023-02-01T17:25:13;55.07;;;26.90;;
20623;SDS011;10471;42.736;23.346;2023-02-01T17:27:40;64.33;;;32.33;;
20623;SDS011;10471;42.736;23.346;2023-02-01T17:30:09;37.90;;;17.53;;
20623;SDS011;10471;42.736;23.346;2023-02-01T17:32:37;43.70;;;19.33;;
20623;SDS011;10471;42.736;23.346;2023-02-01T17:35:04;54.47;;;26.13;;